Decoded Metar for K0CO (BERTHOUD PASS in CO, USA) (IATA:0CO) | Meteo·Mobile Aviation Weather
aviador You're here:

K0CO Decoded Metar

BERTHOUD PASS in CO, USA
Report Time2019-07-23 07:12:00
UTC Time2019-07-23 07:16:13
Flight Rules unknown UNKNOWN
Wind110° at 09 kt
VisibilityN/A
Phenomena:N/A
Clouds:Scattered 120 Hf
Expected CloudBase > 2,800 ft AGL from Temp-Dew spread
CeilingNone
Temp08°C (ISA +20)
Dew Point01°C (62% RH)
AAT3.0°C
QNH1045 hPa
Density Alt14,813 ft
Elevation13,494 ft
Report Wrong Elevation
Raw Report
K0CO 230712Z AUTO 11009KT SCT120 08/01 A3085 RMK AO2 LTG DSNT S
PWINO=

Extra information for K0CO:More info

Metar Taf Metar & Taf Last 4 Metars F.Rules Stats Wind Profile Meteogram Temp Stats Airport Information Weather charts Add Link Nearby VenuesMetar ALERT Operation Metar Decoded Social comments

AIRNAV info for K0CO